sensor_id;sensor_type;location;lat;lon;timestamp;temperature;humidity
43227;DHT22;28839;52.404;9.808;2022-12-07T00:00:18;3.70;99.90
43227;DHT22;28839;52.404;9.808;2022-12-07T00:07:14;3.70;99.90
43227;DHT22;28839;52.404;9.808;2022-12-07T00:14:10;3.70;99.90
43227;DHT22;28839;52.404;9.808;2022-12-07T00:21:06;3.80;99.90
43227;DHT22;28839;52.404;9.808;2022-12-07T00:28:02;3.90;99.90
43227;DHT22;28839;52.404;9.808;2022-12-07T00:34:56;3.80;99.90
43227;DHT22;28839;52.404;9.808;2022-12-07T00:41:50;3.90;99.90
43227;DHT22;28839;52.404;9.808;2022-12-07T00:48:45;4.00;99.90
43227;DHT22;28839;52.404;9.808;2022-12-07T00:55:39;4.00;99.90
43227;DHT22;28839;52.404;9.808;2022-12-07T01:02:33;4.00;99.90
43227;DHT22;28839;52.404;9.808;2022-12-07T01:09:29;4.10;99.90
43227;DHT22;28839;52.404;9.808;2022-12-07T01:16:25;4.10;99.90
43227;DHT22;28839;52.404;9.808;2022-12-07T01:23:19;4.20;99.90
43227;DHT22;28839;52.404;9.808;2022-12-07T01:30:15;4.20;99.90
43227;DHT22;28839;52.404;9.808;2022-12-07T01:37:08;4.20;99.90
43227;DHT22;28839;52.404;9.808;2022-12-07T01:44:27;4.20;99.90
43227;DHT22;28839;52.404;9.808;2022-12-07T01:51:23;4.30;99.90
43227;DHT22;28839;52.404;9.808;2022-12-07T01:58:17;4.20;99.90
43227;DHT22;28839;52.404;9.808;2022-12-07T02:05:11;4.30;99.90
43227;DHT22;28839;52.404;9.808;2022-12-07T02:12:06;4.20;99.90
43227;DHT22;28839;52.404;9.808;2022-12-07T02:19:17;4.10;99.90
43227;DHT22;28839;52.404;9.808;2022-12-07T02:26:41;4.10;99.90
43227;DHT22;28839;52.404;9.808;2022-12-07T02:33:42;4.10;99.90
43227;DHT22;28839;52.404;9.808;2022-12-07T02:40:41;4.10;99.90
43227;DHT22;28839;52.404;9.808;2022-12-07T02:47:37;4.00;99.90
43227;DHT22;28839;52.404;9.808;2022-12-07T02:54:32;3.90;99.90
43227;DHT22;28839;52.404;9.808;2022-12-07T03:01:31;3.80;99.90
43227;DHT22;28839;52.404;9.808;2022-12-07T03:08:34;4.00;99.90
43227;DHT22;28839;52.404;9.808;2022-12-07T03:15:38;4.00;99.90
43227;DHT22;28839;52.404;9.808;2022-12-07T03:22:35;4.10;99.90
43227;DHT22;28839;52.404;9.808;2022-12-07T03:29:34;4.00;99.90
43227;DHT22;28839;52.404;9.808;2022-12-07T03:36:34;4.00;99.90
43227;DHT22;28839;52.404;9.808;2022-12-07T03:43:30;3.90;99.90
43227;DHT22;28839;52.404;9.808;2022-12-07T03:50:29;4.00;99.90
43227;DHT22;28839;52.404;9.808;2022-12-07T03:57:27;3.90;99.90
43227;DHT22;28839;52.404;9.808;2022-12-07T04:04:23;3.90;99.90
43227;DHT22;28839;52.404;9.808;2022-12-07T04:11:18;3.90;99.90
43227;DHT22;28839;52.404;9.808;2022-12-07T04:18:13;3.80;99.90
43227;DHT22;28839;52.404;9.808;2022-12-07T04:25:07;3.80;99.90
43227;DHT22;28839;52.404;9.808;2022-12-07T04:32:01;3.80;99.90
43227;DHT22;28839;52.404;9.808;2022-12-07T04:38:56;3.70;99.90
43227;DHT22;28839;52.404;9.808;2022-12-07T04:45:50;3.70;99.90
43227;DHT22;28839;52.404;9.808;2022-12-07T04:52:44;3.70;99.90
43227;DHT22;28839;52.404;9.808;2022-12-07T04:59:39;3.70;99.90
43227;DHT22;28839;52.404;9.808;2022-12-07T05:06:33;3.70;99.90
43227;DHT22;28839;52.404;9.808;2022-12-07T05:13:27;3.70;99.90
43227;DHT22;28839;52.404;9.808;2022-12-07T05:20:25;3.70;99.90
43227;DHT22;28839;52.404;9.808;2022-12-07T05:27:18;3.70;99.90
43227;DHT22;28839;52.404;9.808;2022-12-07T05:34:12;3.70;99.90
43227;DHT22;28839;52.404;9.808;2022-12-07T05:41:08;3.60;99.90
43227;DHT22;28839;52.404;9.808;2022-12-07T05:48:25;3.60;99.90
43227;DHT22;28839;52.404;9.808;2022-12-07T05:55:20;3.50;99.90
43227;DHT22;28839;52.404;9.808;2022-12-07T06:02:16;3.50;99.90
43227;DHT22;28839;52.404;9.808;2022-12-07T06:09:10;3.50;99.90
43227;DHT22;28839;52.404;9.808;2022-12-07T06:16:05;3.50;99.90
43227;DHT22;28839;52.404;9.808;2022-12-07T06:23:01;3.50;99.90
43227;DHT22;28839;52.404;9.808;2022-12-07T06:29:55;3.50;99.90
43227;DHT22;28839;52.404;9.808;2022-12-07T06:36:49;3.50;99.90
43227;DHT22;28839;52.404;9.808;2022-12-07T06:43:47;3.50;99.90
43227;DHT22;28839;52.404;9.808;2022-12-07T06:50:44;3.40;99.90
43227;DHT22;28839;52.404;9.808;2022-12-07T06:57:38;3.50;99.90
43227;DHT22;28839;52.404;9.808;2022-12-07T07:04:33;3.40;99.90
43227;DHT22;28839;52.404;9.808;2022-12-07T07:11:27;3.30;99.90
43227;DHT22;28839;52.404;9.808;2022-12-07T07:18:21;3.20;99.90
43227;DHT22;28839;52.404;9.808;2022-12-07T07:25:16;3.20;99.90
43227;DHT22;28839;52.404;9.808;2022-12-07T07:32:11;3.20;99.90
43227;DHT22;28839;52.404;9.808;2022-12-07T07:39:05;3.20;99.90
43227;DHT22;28839;52.404;9.808;2022-12-07T07:46:00;3.20;99.90
43227;DHT22;28839;52.404;9.808;2022-12-07T07:52:55;3.20;99.90
43227;DHT22;28839;52.404;9.808;2022-12-07T07:59:50;3.20;99.90
43227;DHT22;28839;52.404;9.808;2022-12-07T08:06:45;3.30;99.90
43227;DHT22;28839;52.404;9.808;2022-12-07T08:13:38;3.30;99.90
43227;DHT22;28839;52.404;9.808;2022-12-07T08:20:34;3.30;99.90
43227;DHT22;28839;52.404;9.808;2022-12-07T08:27:29;3.40;99.90
43227;DHT22;28839;52.404;9.808;2022-12-07T08:34:23;3.50;99.90
43227;DHT22;28839;52.404;9.808;2022-12-07T08:41:17;3.50;99.90
43227;DHT22;28839;52.404;9.808;2022-12-07T08:48:13;3.60;99.90
43227;DHT22;28839;52.404;9.808;2022-12-07T08:55:11;3.60;99.90
43227;DHT22;28839;52.404;9.808;2022-12-07T09:02:06;3.70;99.90
43227;DHT22;28839;52.404;9.808;2022-12-07T09:09:01;3.70;99.90
43227;DHT22;28839;52.404;9.808;2022-12-07T09:15:56;3.80;99.90
43227;DHT22;28839;52.404;9.808;2022-12-07T09:22:50;3.80;99.90
43227;DHT22;28839;52.404;9.808;2022-12-07T09:29:45;3.60;99.90
43227;DHT22;28839;52.404;9.808;2022-12-07T09:36:39;3.90;99.90
43227;DHT22;28839;52.404;9.808;2022-12-07T09:43:35;3.90;99.90
43227;DHT22;28839;52.404;9.808;2022-12-07T09:50:31;4.00;99.90
43227;DHT22;28839;52.404;9.808;2022-12-07T09:57:29;4.10;99.90
43227;DHT22;28839;52.404;9.808;2022-12-07T10:04:24;4.20;99.90
43227;DHT22;28839;52.404;9.808;2022-12-07T10:11:20;4.20;99.90
43227;DHT22;28839;52.404;9.808;2022-12-07T10:18:20;4.50;99.90
43227;DHT22;28839;52.404;9.808;2022-12-07T10:25:18;4.70;99.90
43227;DHT22;28839;52.404;9.808;2022-12-07T10:32:29;4.60;99.90
43227;DHT22;28839;52.404;9.808;2022-12-07T10:39:24;4.70;99.90
43227;DHT22;28839;52.404;9.808;2022-12-07T10:46:43;4.50;99.90
43227;DHT22;28839;52.404;9.808;2022-12-07T10:53:57;4.50;99.90
43227;DHT22;28839;52.404;9.808;2022-12-07T11:00:57;4.40;99.90
43227;DHT22;28839;52.404;9.808;2022-12-07T11:08:02;4.40;99.90
43227;DHT22;28839;52.404;9.808;2022-12-07T11:15:03;4.40;99.90
43227;DHT22;28839;52.404;9.808;2022-12-07T11:22:00;4.60;99.90
43227;DHT22;28839;52.404;9.808;2022-12-07T11:29:08;4.40;99.90
43227;DHT22;28839;52.404;9.808;2022-12-07T11:36:11;4.30;99.90
43227;DHT22;28839;52.404;9.808;2022-12-07T11:43:15;4.00;99.90
43227;DHT22;28839;52.404;9.808;2022-12-07T11:50:21;4.00;99.90
43227;DHT22;28839;52.404;9.808;2022-12-07T11:57:24;3.80;99.90
43227;DHT22;28839;52.404;9.808;2022-12-07T12:04:28;3.90;99.90
43227;DHT22;28839;52.404;9.808;2022-12-07T12:11:36;4.00;99.90
43227;DHT22;28839;52.404;9.808;2022-12-07T12:18:45;4.30;99.90
43227;DHT22;28839;52.404;9.808;2022-12-07T12:25:44;4.70;99.90
43227;DHT22;28839;52.404;9.808;2022-12-07T12:32:40;4.90;99.90
43227;DHT22;28839;52.404;9.808;2022-12-07T12:39:35;4.80;99.90
43227;DHT22;28839;52.404;9.808;2022-12-07T12:46:53;4.70;99.90
43227;DHT22;28839;52.404;9.808;2022-12-07T12:53:48;4.70;99.90
43227;DHT22;28839;52.404;9.808;2022-12-07T13:00:44;4.60;99.90
43227;DHT22;28839;52.404;9.808;2022-12-07T13:07:54;4.60;99.90
43227;DHT22;28839;52.404;9.808;2022-12-07T13:14:58;4.60;99.90
43227;DHT22;28839;52.404;9.808;2022-12-07T13:21:53;4.60;99.90
43227;DHT22;28839;52.404;9.808;2022-12-07T13:28:49;4.60;99.90
43227;DHT22;28839;52.404;9.808;2022-12-07T13:35:43;4.60;99.90
43227;DHT22;28839;52.404;9.808;2022-12-07T13:42:38;4.50;99.90
43227;DHT22;28839;52.404;9.808;2022-12-07T13:49:36;4.50;99.90
43227;DHT22;28839;52.404;9.808;2022-12-07T13:56:33;4.50;99.90
43227;DHT22;28839;52.404;9.808;2022-12-07T14:03:33;4.50;99.90
43227;DHT22;28839;52.404;9.808;2022-12-07T14:10:29;4.50;99.90
43227;DHT22;28839;52.404;9.808;2022-12-07T14:17:25;4.50;99.90
43227;DHT22;28839;52.404;9.808;2022-12-07T14:24:20;4.50;99.90
43227;DHT22;28839;52.404;9.808;2022-12-07T14:31:16;4.50;99.90
43227;DHT22;28839;52.404;9.808;2022-12-07T14:38:10;4.40;99.90
43227;DHT22;28839;52.404;9.808;2022-12-07T14:45:13;4.40;99.90
43227;DHT22;28839;52.404;9.808;2022-12-07T14:52:13;4.30;99.90
43227;DHT22;28839;52.404;9.808;2022-12-07T14:59:08;4.20;99.90
43227;DHT22;28839;52.404;9.808;2022-12-07T15:06:05;4.20;99.90
43227;DHT22;28839;52.404;9.808;2022-12-07T15:13:00;4.10;99.90
43227;DHT22;28839;52.404;9.808;2022-12-07T15:20:11;4.10;99.90
43227;DHT22;28839;52.404;9.808;2022-12-07T15:27:07;4.00;99.90
43227;DHT22;28839;52.404;9.808;2022-12-07T15:34:01;4.00;99.90
43227;DHT22;28839;52.404;9.808;2022-12-07T15:40:55;4.00;99.90
43227;DHT22;28839;52.404;9.808;2022-12-07T15:47:50;3.90;99.90
43227;DHT22;28839;52.404;9.808;2022-12-07T15:54:44;4.00;99.90
43227;DHT22;28839;52.404;9.808;2022-12-07T16:01:37;3.70;99.90
43227;DHT22;28839;52.404;9.808;2022-12-07T16:08:33;3.80;99.90
43227;DHT22;28839;52.404;9.808;2022-12-07T16:15:27;3.70;99.90
43227;DHT22;28839;52.404;9.808;2022-12-07T16:22:21;3.80;99.90
43227;DHT22;28839;52.404;9.808;2022-12-07T16:29:17;3.90;99.90
43227;DHT22;28839;52.404;9.808;2022-12-07T16:36:13;3.90;99.90
43227;DHT22;28839;52.404;9.808;2022-12-07T16:43:09;3.80;99.90
43227;DHT22;28839;52.404;9.808;2022-12-07T16:50:07;3.70;99.90
43227;DHT22;28839;52.404;9.808;2022-12-07T16:57:29;3.80;99.90
43227;DHT22;28839;52.404;9.808;2022-12-07T17:04:23;3.70;99.90
43227;DHT22;28839;52.404;9.808;2022-12-07T17:11:21;3.70;99.90
43227;DHT22;28839;52.404;9.808;2022-12-07T17:18:15;3.70;99.90
43227;DHT22;28839;52.404;9.808;2022-12-07T17:25:09;3.70;99.90
43227;DHT22;28839;52.404;9.808;2022-12-07T17:32:05;3.70;99.90
43227;DHT22;28839;52.404;9.808;2022-12-07T17:38:58;3.20;99.90
43227;DHT22;28839;52.404;9.808;2022-12-07T17:45:52;2.60;99.90
43227;DHT22;28839;52.404;9.808;2022-12-07T17:52:47;2.40;99.90
43227;DHT22;28839;52.404;9.808;2022-12-07T17:59:59;2.30;99.90
43227;DHT22;28839;52.404;9.808;2022-12-07T18:06:53;2.30;99.90
43227;DHT22;28839;52.404;9.808;2022-12-07T18:13:48;2.20;99.90
43227;DHT22;28839;52.404;9.808;2022-12-07T18:20:42;2.20;99.90
43227;DHT22;28839;52.404;9.808;2022-12-07T18:27:36;2.20;99.90
43227;DHT22;28839;52.404;9.808;2022-12-07T18:34:31;2.30;99.90
43227;DHT22;28839;52.404;9.808;2022-12-07T18:41:25;2.30;99.90
43227;DHT22;28839;52.404;9.808;2022-12-07T18:48:21;2.30;99.90
43227;DHT22;28839;52.404;9.808;2022-12-07T18:55:16;2.50;99.90
43227;DHT22;28839;52.404;9.808;2022-12-07T19:02:10;2.40;99.90
43227;DHT22;28839;52.404;9.808;2022-12-07T19:09:04;2.40;99.90
43227;DHT22;28839;52.404;9.808;2022-12-07T19:15:59;2.50;99.90
43227;DHT22;28839;52.404;9.808;2022-12-07T19:22:53;2.60;99.90
43227;DHT22;28839;52.404;9.808;2022-12-07T19:29:48;2.70;99.90
43227;DHT22;28839;52.404;9.808;2022-12-07T19:36:44;2.90;99.90
43227;DHT22;28839;52.404;9.808;2022-12-07T19:43:38;3.00;99.90
43227;DHT22;28839;52.404;9.808;2022-12-07T19:50:32;3.10;99.90
43227;DHT22;28839;52.404;9.808;2022-12-07T19:57:27;3.20;99.90
43227;DHT22;28839;52.404;9.808;2022-12-07T20:04:23;3.20;99.90
43227;DHT22;28839;52.404;9.808;2022-12-07T20:11:18;3.20;99.90
43227;DHT22;28839;52.404;9.808;2022-12-07T20:18:31;3.30;99.90
43227;DHT22;28839;52.404;9.808;2022-12-07T20:25:26;3.30;99.90
43227;DHT22;28839;52.404;9.808;2022-12-07T20:32:20;3.20;99.90
43227;DHT22;28839;52.404;9.808;2022-12-07T20:39:15;3.30;99.90
43227;DHT22;28839;52.404;9.808;2022-12-07T20:46:11;3.20;99.90
43227;DHT22;28839;52.404;9.808;2022-12-07T20:53:04;3.40;99.90
43227;DHT22;28839;52.404;9.808;2022-12-07T20:59:59;3.30;99.90
43227;DHT22;28839;52.404;9.808;2022-12-07T21:06:53;3.30;99.90
43227;DHT22;28839;52.404;9.808;2022-12-07T21:13:47;3.30;99.90
43227;DHT22;28839;52.404;9.808;2022-12-07T21:20:43;3.30;99.90
43227;DHT22;28839;52.404;9.808;2022-12-07T21:27:37;3.30;99.90
43227;DHT22;28839;52.404;9.808;2022-12-07T21:34:30;3.30;99.90
43227;DHT22;28839;52.404;9.808;2022-12-07T21:41:27;3.40;99.90
43227;DHT22;28839;52.404;9.808;2022-12-07T21:48:21;3.40;99.90
43227;DHT22;28839;52.404;9.808;2022-12-07T21:55:15;3.40;99.90
43227;DHT22;28839;52.404;9.808;2022-12-07T22:02:12;3.40;99.90
43227;DHT22;28839;52.404;9.808;2022-12-07T22:09:06;3.40;99.90
43227;DHT22;28839;52.404;9.808;2022-12-07T22:16:00;3.40;99.90
43227;DHT22;28839;52.404;9.808;2022-12-07T22:22:57;3.40;99.90
43227;DHT22;28839;52.404;9.808;2022-12-07T22:29:51;3.40;99.90
43227;DHT22;28839;52.404;9.808;2022-12-07T22:36:44;3.50;99.90
43227;DHT22;28839;52.404;9.808;2022-12-07T22:43:39;3.40;99.90
43227;DHT22;28839;52.404;9.808;2022-12-07T22:50:34;3.50;99.90
43227;DHT22;28839;52.404;9.808;2022-12-07T22:57:28;3.40;99.90
43227;DHT22;28839;52.404;9.808;2022-12-07T23:04:24;3.40;99.90
43227;DHT22;28839;52.404;9.808;2022-12-07T23:11:22;3.40;99.90
43227;DHT22;28839;52.404;9.808;2022-12-07T23:18:34;3.40;99.90
43227;DHT22;28839;52.404;9.808;2022-12-07T23:25:29;3.40;99.90
43227;DHT22;28839;52.404;9.808;2022-12-07T23:32:24;3.40;99.90
43227;DHT22;28839;52.404;9.808;2022-12-07T23:39:18;3.30;99.90
43227;DHT22;28839;52.404;9.808;2022-12-07T23:46:15;3.40;99.90
43227;DHT22;28839;52.404;9.808;2022-12-07T23:53:09;3.40;99.90
